createdAt,value
2022-11-21T05:30:59.605Z,99.99
2022-11-21T05:31:59.524Z,99.99
2022-11-21T05:32:59.507Z,99.99
2022-11-21T05:33:59.482Z,99.99
2022-11-21T05:34:59.475Z,99.99
2022-11-21T05:35:59.471Z,99.99
2022-11-21T05:36:59.449Z,99.99
2022-11-21T05:37:59.431Z,99.99
2022-11-21T05:38:59.422Z,99.99
2022-11-21T05:39:59.425Z,99.99
2022-11-21T05:40:59.411Z,99.99
2022-11-21T05:42:02.982Z,99.99
2022-11-21T05:42:59.370Z,99.99
2022-11-21T05:44:06.478Z,99.99
2022-11-21T05:44:59.369Z,99.99
2022-11-21T05:45:59.338Z,99.99
2022-11-21T05:46:59.325Z,99.99
2022-11-21T05:47:59.308Z,99.99
2022-11-21T05:48:59.298Z,99.99
2022-11-21T05:49:59.280Z,99.99
2022-11-21T05:50:59.286Z,99.99
2022-11-21T05:51:59.256Z,99.99
2022-11-21T05:52:59.247Z,99.99
2022-11-21T05:53:59.247Z,99.99
2022-11-21T05:54:59.246Z,99.99
2022-11-21T05:55:59.244Z,99.99
2022-11-21T05:56:59.217Z,99.99
2022-11-21T05:57:59.241Z,99.99
2022-11-21T05:58:59.209Z,99.99
2022-11-21T05:59:59.188Z,99.99
2022-11-21T06:01:00.144Z,99.99
2022-11-21T06:01:59.169Z,99.99
2022-11-21T06:02:59.135Z,99.99
2022-11-21T06:03:59.115Z,99.99
2022-11-21T06:04:59.086Z,99.99
2022-11-21T06:05:59.075Z,99.99
2022-11-21T06:06:59.271Z,99.99
2022-11-21T06:07:59.054Z,99.99
2022-11-21T06:08:59.034Z,99.99
2022-11-21T06:09:59.023Z,99.99
2022-11-21T06:10:59.046Z,99.99
2022-11-21T06:11:59.007Z,99.99
2022-11-21T06:12:58.980Z,99.99
2022-11-21T06:13:58.982Z,99.99
2022-11-21T06:14:58.951Z,99.99
2022-11-21T06:15:58.971Z,99.99
2022-11-21T06:16:58.940Z,99.99
2022-11-21T06:17:58.939Z,99.99
2022-11-21T06:18:59.065Z,99.99
2022-11-21T06:19:58.900Z,99.99
2022-11-21T06:20:58.874Z,99.99
2022-11-21T06:21:58.888Z,99.99
2022-11-21T06:22:58.850Z,99.99
2022-11-21T06:23:58.851Z,99.99
2022-11-21T06:24:58.827Z,99.99
2022-11-21T06:25:58.819Z,99.99
2022-11-21T06:26:58.810Z,99.99
2022-11-21T06:27:58.800Z,99.99
2022-11-21T06:28:58.776Z,99.99
2022-11-21T06:29:58.769Z,99.99
2022-11-21T06:30:58.749Z,99.99
2022-11-21T06:31:58.767Z,99.99
2022-11-21T06:32:58.761Z,99.99
2022-11-21T06:33:58.724Z,99.99
2022-11-21T06:34:58.698Z,99.99
2022-11-21T06:35:58.697Z,99.99
2022-11-21T06:36:58.685Z,99.99
2022-11-21T06:37:58.656Z,99.99
2022-11-21T06:38:58.651Z,99.99
2022-11-21T06:39:58.639Z,99.99
2022-11-21T06:40:58.615Z,99.99
2022-11-21T06:41:58.616Z,99.99
2022-11-21T06:42:58.597Z,99.99
2022-11-21T06:43:58.595Z,99.99
2022-11-21T06:44:58.565Z,99.99
2022-11-21T06:45:58.563Z,99.99
2022-11-21T06:46:58.560Z,99.99
2022-11-21T06:47:58.534Z,99.99
2022-11-21T06:48:58.635Z,99.99
2022-11-21T06:49:58.514Z,99.99
2022-11-21T06:50:58.492Z,99.99
2022-11-21T06:51:58.501Z,99.99
2022-11-21T06:52:58.478Z,99.99
2022-11-21T06:53:58.483Z,99.99
2022-11-21T06:54:58.451Z,99.99
2022-11-21T06:55:58.434Z,99.99
2022-11-21T06:56:58.430Z,99.99
2022-11-21T06:57:58.411Z,99.99
2022-11-21T06:58:58.423Z,99.99
2022-11-21T06:59:58.382Z,99.99
2022-11-21T07:00:58.430Z,99.99
2022-11-21T07:01:58.372Z,99.99
2022-11-21T07:03:02.756Z,99.99
2022-11-21T07:03:59.341Z,99.99
2022-11-21T07:04:58.331Z,99.99
2022-11-21T07:05:58.311Z,99.99
2022-11-21T07:06:58.298Z,99.99
2022-11-21T07:07:58.291Z,99.99
2022-11-21T07:09:31.790Z,99.99
2022-11-21T07:09:59.280Z,99.99
2022-11-21T07:11:23.476Z,99.99
2022-11-21T07:11:59.248Z,99.99
2022-11-21T07:12:58.199Z,99.99
2022-11-21T07:13:58.216Z,99.99
2022-11-21T07:14:58.177Z,99.99
2022-11-21T07:15:58.177Z,99.99
2022-11-21T07:16:58.157Z,99.99
2022-11-21T07:17:58.167Z,99.99
2022-11-21T07:18:58.139Z,99.99
2022-11-21T07:19:58.127Z,99.99
2022-11-21T07:20:58.119Z,99.99
2022-11-21T07:21:58.097Z,99.99
2022-11-21T07:22:58.099Z,99.99
2022-11-21T07:23:58.083Z,99.99
2022-11-21T07:24:58.059Z,99.99
2022-11-21T07:25:58.045Z,99.99
2022-11-21T07:26:58.036Z,99.99
2022-11-21T07:27:58.042Z,99.99
2022-11-21T07:28:58.012Z,99.99
2022-11-21T07:29:57.995Z,99.99
2022-11-21T07:30:57.984Z,99.99
2022-11-21T07:31:57.969Z,99.99
2022-11-21T07:32:57.971Z,99.99
2022-11-21T07:33:57.961Z,99.99
2022-11-21T07:34:57.932Z,99.99
2022-11-21T07:35:57.924Z,99.99
2022-11-21T07:36:57.918Z,99.99
2022-11-21T07:37:57.903Z,99.99
2022-11-21T07:38:57.884Z,99.99
2022-11-21T07:39:57.863Z,99.99
2022-11-21T07:40:57.842Z,99.99
2022-11-21T07:41:57.842Z,99.99
2022-11-21T07:42:57.830Z,99.99
2022-11-21T07:43:57.832Z,99.99
2022-11-21T07:44:57.800Z,99.99
2022-11-21T07:45:57.780Z,99.99
2022-11-21T07:46:57.770Z,99.99
2022-11-21T07:47:57.781Z,99.99
2022-11-21T07:49:02.895Z,99.99
2022-11-21T07:49:58.740Z,99.99
2022-11-21T07:50:57.729Z,99.99
2022-11-21T07:51:57.720Z,99.99
2022-11-21T07:52:57.700Z,99.99
2022-11-21T07:53:57.709Z,99.99
2022-11-21T07:54:57.671Z,99.99
2022-11-21T07:55:57.659Z,99.99
2022-11-21T07:56:57.647Z,99.99
2022-11-21T07:57:57.641Z,99.99
2022-11-21T07:58:57.648Z,99.99
2022-11-21T07:59:57.607Z,99.99
2022-11-21T08:00:57.599Z,99.99
2022-11-21T08:01:57.626Z,99.99
2022-11-21T08:02:57.567Z,99.99
2022-11-21T08:03:57.599Z,99.99
2022-11-21T08:04:57.537Z,99.99
2022-11-21T08:05:57.527Z,99.99
2022-11-21T08:06:57.568Z,99.99
2022-11-21T08:07:57.508Z,99.99
2022-11-21T08:08:57.505Z,99.99
2022-11-21T08:09:57.485Z,99.99
2022-11-21T08:10:57.466Z,99.99
2022-11-21T08:11:57.465Z,99.99
2022-11-21T08:12:57.436Z,99.99
2022-11-21T08:13:57.446Z,99.99
2022-11-21T08:14:57.405Z,99.99
2022-11-21T08:15:57.395Z,99.99
2022-11-21T08:16:57.397Z,99.99
2022-11-21T08:17:57.376Z,99.99
2022-11-21T08:18:57.372Z,99.99
2022-11-21T08:19:57.345Z,99.99
2022-11-21T08:20:57.354Z,99.99
2022-11-21T08:21:57.323Z,99.99
2022-11-21T08:22:57.303Z,99.99
2022-11-21T08:23:57.314Z,99.99
2022-11-21T08:24:57.274Z,99.99
2022-11-21T08:25:57.274Z,99.99
2022-11-21T08:26:57.262Z,99.99
2022-11-21T08:27:57.244Z,99.99
2022-11-21T08:29:00.023Z,99.99
2022-11-21T08:29:57.230Z,99.99
2022-11-21T08:30:57.203Z,99.99
2022-11-21T08:31:57.191Z,99.99
2022-11-21T08:32:57.184Z,99.99
2022-11-21T08:33:57.181Z,99.99
2022-11-21T08:34:57.151Z,99.99
2022-11-21T08:35:57.150Z,99.99
2022-11-21T08:36:57.129Z,99.99
2022-11-21T08:37:57.121Z,99.99
2022-11-21T08:38:57.109Z,99.99
2022-11-21T08:39:57.094Z,99.99
2022-11-21T08:40:57.077Z,99.99
2022-11-21T08:41:57.069Z,99.99
2022-11-21T08:42:57.050Z,99.99
2022-11-21T08:43:57.060Z,97.96
2022-11-21T08:44:57.027Z,96.20
2022-11-21T08:45:57.018Z,95.47
2022-11-21T08:46:56.988Z,94.95
2022-11-21T08:47:56.992Z,93.02
2022-11-21T08:48:56.988Z,92.18
2022-11-21T08:49:56.958Z,93.76
2022-11-21T08:50:56.951Z,95.57
2022-11-21T08:51:56.927Z,96.86
2022-11-21T08:52:56.930Z,98.26
2022-11-21T08:53:56.927Z,99.14
2022-11-21T08:54:56.899Z,99.76
2022-11-21T08:56:00.217Z,99.99
2022-11-21T08:56:57.867Z,99.99
2022-11-21T08:57:56.848Z,99.99
2022-11-21T08:58:56.857Z,99.99
2022-11-21T08:59:56.828Z,99.99
2022-11-21T09:00:56.826Z,99.99
2022-11-21T09:01:56.864Z,99.99
2022-11-21T09:02:56.796Z,99.99
2022-11-21T09:03:56.796Z,99.99
2022-11-21T09:04:56.765Z,99.99
2022-11-21T09:05:56.754Z,99.99
2022-11-21T09:06:56.743Z,99.99
2022-11-21T09:07:56.746Z,99.99
2022-11-21T09:08:56.735Z,99.99
2022-11-21T09:09:56.694Z,99.99
2022-11-21T09:10:56.686Z,99.99
2022-11-21T09:11:56.671Z,99.99
2022-11-21T09:12:56.654Z,99.99
2022-11-21T09:13:56.654Z,99.99
2022-11-21T09:14:56.644Z,99.99
2022-11-21T09:15:56.612Z,99.99
2022-11-21T09:17:01.743Z,99.99
2022-11-21T09:17:57.593Z,99.99
2022-11-21T09:18:56.582Z,99.99
2022-11-21T09:19:56.612Z,99.99
2022-11-21T09:20:56.562Z,99.99
2022-11-21T09:21:56.542Z,99.99
2022-11-21T09:22:56.531Z,99.99
2022-11-21T09:23:56.520Z,99.99
2022-11-21T09:24:56.522Z,99.99
2022-11-21T09:25:56.494Z,99.99
2022-11-21T09:26:56.481Z,99.99
2022-11-21T09:27:56.459Z,99.99
2022-11-21T09:28:56.450Z,99.99
2022-11-21T09:29:56.451Z,99.99
2022-11-21T09:30:56.422Z,99.99
2022-11-21T09:31:56.400Z,99.99
2022-11-21T09:32:56.399Z,99.99
2022-11-21T09:33:56.399Z,99.99
2022-11-21T09:34:56.397Z,99.99
2022-11-21T09:35:56.357Z,99.99
2022-11-21T09:36:56.348Z,99.99
2022-11-21T09:37:56.328Z,99.99
2022-11-21T09:38:56.317Z,99.99
2022-11-21T09:39:56.311Z,99.99
2022-11-21T09:40:56.298Z,99.99
2022-11-21T09:41:56.297Z,99.99
2022-11-21T09:42:56.275Z,99.99
2022-11-21T09:43:56.262Z,99.99
2022-11-21T09:44:56.267Z,99.99
2022-11-21T09:45:56.225Z,99.99
2022-11-21T09:46:56.216Z,99.99
2022-11-21T09:47:56.195Z,99.99
2022-11-21T09:48:56.196Z,99.99
2022-11-21T09:49:56.184Z,99.99
2022-11-21T09:50:56.164Z,99.99
2022-11-21T09:51:56.152Z,99.99
2022-11-21T09:52:56.147Z,99.99
2022-11-21T09:53:56.128Z,99.99
2022-11-21T09:54:56.124Z,99.99
2022-11-21T09:55:56.094Z,99.99
2022-11-21T09:56:56.083Z,99.99
2022-11-21T09:57:56.082Z,99.99
2022-11-21T09:58:56.063Z,99.99
2022-11-21T09:59:56.052Z,99.99
2022-11-21T10:00:56.137Z,99.99
2022-11-21T10:01:56.021Z,99.99
2022-11-21T10:02:56.012Z,99.99
2022-11-21T10:03:56.002Z,99.99
2022-11-21T10:04:55.991Z,99.99
2022-11-21T10:05:55.979Z,99.99
2022-11-21T10:06:55.962Z,99.99
2022-11-21T10:07:55.950Z,99.99
2022-11-21T10:08:55.932Z,99.99
2022-11-21T10:09:55.910Z,99.99
2022-11-21T10:10:55.923Z,99.99
2022-11-21T10:11:55.889Z,99.99
2022-11-21T10:12:55.878Z,99.99
2022-11-21T10:13:55.859Z,99.99
2022-11-21T10:14:55.857Z,99.99
2022-11-21T10:15:55.850Z,99.99
2022-11-21T10:16:55.822Z,99.99
2022-11-21T10:17:55.818Z,99.99
2022-11-21T10:18:55.799Z,99.99
2022-11-21T10:19:55.788Z,99.99
2022-11-21T10:20:55.779Z,99.99
2022-11-21T10:21:55.761Z,99.99
2022-11-21T10:22:55.747Z,99.99
2022-11-21T10:23:55.748Z,99.99
2022-11-21T10:24:55.718Z,99.99
2022-11-21T10:25:55.717Z,99.99
2022-11-21T10:26:55.699Z,99.99
2022-11-21T10:27:55.685Z,99.99
2022-11-21T10:28:55.666Z,99.99
2022-11-21T10:29:55.656Z,99.99
2022-11-21T10:30:55.655Z,99.99
2022-11-21T10:31:55.647Z,99.99
2022-11-21T10:32:55.616Z,99.99
2022-11-21T10:33:55.616Z,99.99
2022-11-21T10:34:55.585Z,99.99
2022-11-21T10:35:55.585Z,99.99
2022-11-21T10:36:55.567Z,99.99
2022-11-21T10:37:55.552Z,99.99
2022-11-21T10:38:55.535Z,99.99
2022-11-21T10:39:55.524Z,99.99
2022-11-21T10:40:55.523Z,99.99
2022-11-21T10:41:55.503Z,99.99
2022-11-21T10:42:55.483Z,99.99
2022-11-21T10:43:55.483Z,99.99
2022-11-21T10:44:55.462Z,99.99
2022-11-21T10:45:55.453Z,99.99
2022-11-21T10:46:55.433Z,99.99
2022-11-21T10:47:55.422Z,99.99
2022-11-21T10:48:55.410Z,99.99
2022-11-21T10:49:55.410Z,99.99
2022-11-21T10:50:55.392Z,99.99
2022-11-21T10:51:55.372Z,99.99
2022-11-21T10:52:55.361Z,99.99
2022-11-21T10:53:56.090Z,99.99
2022-11-21T10:54:55.332Z,99.99
2022-11-21T10:55:55.332Z,99.99
2022-11-21T10:56:55.299Z,99.99
2022-11-21T10:57:55.311Z,99.99
2022-11-21T10:58:55.377Z,99.99
2022-11-21T10:59:55.278Z,99.99
2022-11-21T11:00:55.310Z,99.99
2022-11-21T11:01:55.239Z,99.99
2022-11-21T11:02:55.233Z,99.99
2022-11-21T11:04:21.029Z,99.99
2022-11-21T11:04:56.456Z,99.99
2022-11-21T11:05:55.221Z,99.99
2022-11-21T11:06:55.209Z,99.99
2022-11-21T11:07:55.162Z,99.99
2022-11-21T11:08:55.167Z,99.99
2022-11-21T11:09:55.157Z,99.99
2022-11-21T11:10:55.997Z,99.99
2022-11-21T11:11:55.175Z,99.99
2022-11-21T11:12:55.116Z,99.99
2022-11-21T11:13:55.097Z,99.99
2022-11-21T11:14:55.083Z,99.99
2022-11-21T11:15:55.097Z,99.99
2022-11-21T11:16:55.074Z,99.99
2022-11-21T11:17:55.036Z,99.99
2022-11-21T11:18:55.046Z,99.99
2022-11-21T11:19:55.007Z,99.99
2022-11-21T11:20:55.016Z,99.99
2022-11-21T11:21:55.007Z,99.99
2022-11-21T11:22:54.968Z,99.99
2022-11-21T11:23:54.960Z,99.99
2022-11-21T11:24:59.062Z,99.99
2022-11-21T11:25:55.928Z,99.99
2022-11-21T11:26:54.925Z,99.99
2022-11-21T11:27:54.902Z,99.99
2022-11-21T11:28:54.915Z,99.99
2022-11-21T11:29:54.874Z,99.99
2022-11-21T11:30:54.877Z,99.99
2022-11-21T11:31:54.891Z,99.99
2022-11-21T11:32:54.832Z,99.99
2022-11-21T11:33:54.822Z,99.99
2022-11-21T11:34:54.850Z,99.99
2022-11-21T11:35:54.803Z,99.99
2022-11-21T11:36:54.811Z,99.99
2022-11-21T11:37:54.782Z,99.99
2022-11-21T11:38:54.755Z,99.99
2022-11-21T11:39:54.742Z,99.99
2022-11-21T11:40:54.732Z,99.99
2022-11-21T11:41:54.732Z,99.99
2022-11-21T11:42:54.734Z,99.99
2022-11-21T11:43:54.713Z,99.99
2022-11-21T11:44:54.681Z,99.99
2022-11-21T11:45:54.663Z,99.99
2022-11-21T11:46:54.659Z,99.99
2022-11-21T11:48:01.722Z,99.99
2022-11-21T11:49:17.920Z,99.99
2022-11-21T11:49:55.614Z,99.99
2022-11-21T11:50:54.601Z,99.99
2022-11-21T11:51:54.586Z,99.99
2022-11-21T11:52:56.148Z,99.99
2022-11-21T11:53:59.866Z,99.99
2022-11-21T11:54:55.552Z,99.99
2022-11-21T11:55:54.568Z,99.99
2022-11-21T11:56:54.533Z,99.99
2022-11-21T11:57:54.521Z,99.99
2022-11-21T11:58:54.499Z,99.99
2022-11-21T11:59:54.482Z,99.99
2022-11-21T12:00:54.479Z,99.99
2022-11-21T12:01:54.497Z,99.99
2022-11-21T12:02:54.457Z,99.99
2022-11-21T12:03:57.933Z,99.99
2022-11-21T12:04:54.419Z,99.99
2022-11-21T12:05:54.402Z,99.99
2022-11-21T12:08:39.491Z,99.99
2022-11-21T12:08:55.470Z,99.99
2022-11-21T12:09:54.349Z,99.99
2022-11-21T12:10:54.339Z,99.99
2022-11-21T12:11:54.327Z,99.99
2022-11-21T12:12:54.318Z,99.99
2022-11-21T12:13:54.298Z,99.99
2022-11-21T12:14:54.287Z,99.99
2022-11-21T12:15:58.473Z,99.99
2022-11-21T12:16:55.258Z,99.99
2022-11-21T12:17:54.257Z,99.99
2022-11-21T12:18:54.348Z,99.99
2022-11-21T12:19:54.217Z,99.99
2022-11-21T12:20:54.214Z,99.99
2022-11-21T12:21:54.194Z,99.99
2022-11-21T12:22:54.198Z,99.99
2022-11-21T12:23:54.167Z,99.99
2022-11-21T12:24:54.164Z,99.99
2022-11-21T12:25:54.145Z,99.99
2022-11-21T12:26:54.136Z,99.99
2022-11-21T12:27:54.126Z,99.99
2022-11-21T12:28:54.210Z,99.99
2022-11-21T12:29:54.094Z,99.99
2022-11-21T12:30:54.085Z,99.99
2022-11-21T12:31:54.088Z,99.99
2022-11-21T12:32:54.072Z,99.99
2022-11-21T12:33:54.034Z,99.99
2022-11-21T12:34:54.034Z,99.99
2022-11-21T12:35:54.013Z,99.99
2022-11-21T12:36:54.004Z,99.99
2022-11-21T12:37:53.992Z,99.99
2022-11-21T12:38:53.972Z,99.99
2022-11-21T12:39:53.954Z,99.99
2022-11-21T12:40:53.952Z,99.99
2022-11-21T12:41:53.937Z,99.99
2022-11-21T12:45:24.791Z,99.99
2022-11-21T12:46:03.760Z,99.99
2022-11-21T12:47:03.759Z,99.99
2022-11-21T12:48:03.772Z,99.99
2022-11-21T12:49:03.731Z,99.99
2022-11-21T12:50:03.721Z,99.99
2022-11-21T12:51:03.719Z,99.99
2022-11-21T12:52:03.689Z,99.99
2022-11-21T12:53:03.688Z,99.99
2022-11-21T12:54:03.660Z,99.99
2022-11-21T12:55:03.659Z,99.99
2022-11-21T12:56:03.649Z,99.99
2022-11-21T12:57:03.630Z,99.99
2022-11-21T12:58:03.629Z,99.99
2022-11-21T12:59:03.612Z,99.99
2022-11-21T13:00:03.599Z,99.99
2022-11-21T13:01:03.710Z,99.99
2022-11-21T13:02:03.567Z,99.99
2022-11-21T13:03:03.570Z,99.99
2022-11-21T13:04:03.556Z,99.99
2022-11-21T13:05:03.569Z,99.99
2022-11-21T13:06:03.518Z,99.99
2022-11-21T13:07:03.570Z,99.99
2022-11-21T13:08:03.508Z,99.99
2022-11-21T13:09:03.487Z,99.99
2022-11-21T13:10:03.466Z,99.99
2022-11-21T13:11:03.465Z,99.99
2022-11-21T13:12:03.437Z,99.99
2022-11-21T13:13:03.466Z,99.99
2022-11-21T13:14:03.419Z,99.99
2022-11-21T13:15:03.405Z,99.99
2022-11-21T13:16:03.386Z,99.99
2022-11-21T13:17:03.390Z,99.99
2022-11-21T13:18:03.427Z,99.99
2022-11-21T13:19:03.386Z,99.99
2022-11-21T13:20:03.334Z,99.99
2022-11-21T13:21:03.327Z,99.99
2022-11-21T13:22:03.314Z,99.99
2022-11-21T13:23:03.305Z,99.99
2022-11-21T13:24:03.306Z,99.99
2022-11-21T13:25:03.283Z,99.99
2022-11-21T13:26:03.264Z,99.99
2022-11-21T13:27:03.254Z,99.99
2022-11-21T13:28:04.567Z,99.99
2022-11-21T13:29:03.243Z,99.99
2022-11-21T13:30:03.216Z,99.99
2022-11-21T13:31:03.222Z,99.99
2022-11-21T13:32:03.195Z,99.99
2022-11-21T13:33:03.194Z,99.99
2022-11-21T13:34:03.171Z,99.99
2022-11-21T13:35:03.162Z,99.99
2022-11-21T13:36:03.133Z,99.99
2022-11-21T13:37:03.123Z,99.99
2022-11-21T13:38:03.111Z,99.99
2022-11-21T13:39:03.113Z,99.99
2022-11-21T13:40:03.081Z,99.99
2022-11-21T13:41:03.081Z,99.99
2022-11-21T13:42:03.052Z,99.99
2022-11-21T13:43:18.054Z,99.99
2022-11-21T13:44:04.033Z,99.99
2022-11-21T13:45:03.021Z,99.99
2022-11-21T13:46:03.008Z,99.99
2022-11-21T13:47:02.998Z,99.99
2022-11-21T13:48:03.007Z,99.99
2022-11-21T13:49:02.972Z,99.99
2022-11-21T13:50:02.977Z,99.99
2022-11-21T13:51:02.972Z,99.99
2022-11-21T13:52:02.930Z,99.99
2022-11-21T13:53:02.921Z,99.99
2022-11-21T13:54:02.919Z,99.99
2022-11-21T13:55:02.900Z,99.99
2022-11-21T13:56:02.880Z,99.99
2022-11-21T13:57:02.877Z,99.99
2022-11-21T13:58:02.856Z,99.99
2022-11-21T13:59:02.859Z,99.99
2022-11-21T14:00:02.843Z,99.99
2022-11-21T14:01:02.897Z,99.99
2022-11-21T14:02:02.827Z,99.99
2022-11-21T14:03:02.787Z,99.99
2022-11-21T14:04:02.768Z,99.99
2022-11-21T14:05:02.777Z,99.99
2022-11-21T14:06:02.747Z,99.99
2022-11-21T14:07:02.851Z,99.99
2022-11-21T14:08:02.833Z,99.99
2022-11-21T14:09:02.719Z,99.99
2022-11-21T14:10:02.711Z,99.99
2022-11-21T14:11:02.689Z,99.99
2022-11-21T14:12:02.674Z,99.99
2022-11-21T14:13:02.728Z,99.99
2022-11-21T14:14:02.645Z,99.99
2022-11-21T14:15:02.644Z,99.99
2022-11-21T14:16:02.622Z,99.99
2022-11-21T14:17:02.617Z,99.99
2022-11-21T14:18:02.600Z,99.99
2022-11-21T14:19:02.589Z,99.99
2022-11-21T14:20:02.585Z,99.99
2022-11-21T14:21:02.564Z,99.99
2022-11-21T14:22:02.544Z,99.99
2022-11-21T14:23:02.534Z,99.99
2022-11-21T14:24:02.527Z,99.99
2022-11-21T14:25:02.534Z,99.99
2022-11-21T14:26:02.494Z,99.99
2022-11-21T14:27:02.493Z,99.99
2022-11-21T14:28:02.472Z,99.99
2022-11-21T14:29:02.452Z,99.99
2022-11-21T14:30:02.467Z,99.99
2022-11-21T14:31:02.472Z,99.99
2022-11-21T14:32:02.413Z,99.99
2022-11-21T14:33:02.413Z,99.99
2022-11-21T14:34:02.392Z,99.99
2022-11-21T14:35:02.391Z,99.99
2022-11-21T14:36:02.371Z,99.99
2022-11-21T14:37:02.364Z,99.99
2022-11-21T14:38:02.341Z,99.99
2022-11-21T14:39:34.593Z,99.99
2022-11-21T14:40:03.320Z,99.99
2022-11-21T14:41:02.310Z,99.99
2022-11-21T14:42:02.293Z,99.99
2022-11-21T14:43:02.280Z,99.99
2022-11-21T14:44:02.259Z,99.99
2022-11-21T14:45:02.260Z,99.99
2022-11-21T14:46:02.230Z,99.99
2022-11-21T14:47:02.238Z,99.99
2022-11-21T14:48:02.208Z,99.99
2022-11-21T14:49:02.200Z,99.99
2022-11-21T14:50:06.953Z,99.99
2022-11-21T14:51:03.168Z,99.99
2022-11-21T14:52:02.150Z,99.99
2022-11-21T14:53:02.148Z,99.99
2022-11-21T14:54:02.143Z,99.99
2022-11-21T14:56:03.116Z,99.99
2022-11-21T14:57:02.101Z,99.99
2022-11-21T14:58:02.101Z,99.99
2022-11-21T14:59:02.090Z,99.99
2022-11-21T15:00:02.071Z,99.99
2022-11-21T15:01:02.432Z,99.99
2022-11-21T15:02:02.028Z,99.99
2022-11-21T15:03:02.072Z,99.99
2022-11-21T15:04:02.006Z,99.99
2022-11-21T15:05:02.003Z,99.99
2022-11-21T15:06:05.851Z,99.99
2022-11-21T15:07:03.000Z,99.99
2022-11-21T15:08:32.006Z,99.99
2022-11-21T15:10:11.561Z,99.99
2022-11-21T15:10:28.733Z,99.99
2022-11-21T15:11:02.926Z,99.99
2022-11-21T15:12:01.909Z,99.99
2022-11-21T15:13:01.884Z,99.99
2022-11-21T15:14:17.614Z,99.99
2022-11-21T15:15:02.883Z,99.99
2022-11-21T15:16:01.854Z,99.99
2022-11-21T15:17:01.835Z,99.99
2022-11-21T15:18:26.467Z,99.99
2022-11-21T15:19:02.803Z,99.99
2022-11-21T15:20:03.002Z,99.99
2022-11-21T15:21:01.792Z,99.99
2022-11-21T15:22:01.784Z,99.99
2022-11-21T15:23:01.760Z,99.99
2022-11-21T15:24:01.752Z,99.99
2022-11-21T15:25:01.732Z,99.99
2022-11-21T15:26:01.872Z,99.99
2022-11-21T15:27:01.712Z,99.99
2022-11-21T15:28:01.702Z,99.99
2022-11-21T15:29:01.683Z,99.99
2022-11-21T15:30:01.736Z,99.99
2022-11-21T15:31:01.669Z,99.99
2022-11-21T15:32:01.650Z,99.99
2022-11-21T15:33:01.645Z,99.99
2022-11-21T15:35:02.610Z,99.99
2022-11-21T15:36:01.610Z,99.99
2022-11-21T15:37:01.584Z,99.99
2022-11-21T15:38:01.577Z,99.99
2022-11-21T15:39:01.562Z,99.99
2022-11-21T15:40:01.604Z,99.99
2022-11-21T15:41:01.576Z,99.99
2022-11-21T15:42:01.528Z,99.99
2022-11-21T15:43:01.522Z,99.99
2022-11-21T15:44:01.508Z,99.99
2022-11-21T15:45:01.493Z,99.99
2022-11-21T15:46:01.478Z,99.99
2022-11-21T15:47:01.467Z,99.99
2022-11-21T15:48:01.447Z,99.99
2022-11-21T15:49:06.245Z,99.99
2022-11-21T15:50:02.484Z,99.99
2022-11-21T15:51:01.428Z,99.99
2022-11-21T15:52:09.816Z,99.99
2022-11-21T15:53:02.387Z,99.99
2022-11-21T15:54:01.367Z,99.99
2022-11-21T15:55:01.367Z,99.99
2022-11-21T15:56:01.366Z,99.99
2022-11-21T15:57:01.335Z,99.99
2022-11-21T15:58:01.325Z,99.99
2022-11-21T15:59:01.316Z,99.99
2022-11-21T16:00:01.315Z,99.99
2022-11-21T16:01:01.328Z,99.99
2022-11-21T16:02:01.276Z,99.99
2022-11-21T16:03:01.264Z,99.99
2022-11-21T16:04:01.258Z,99.99
2022-11-21T16:05:01.244Z,99.99
2022-11-21T16:06:01.233Z,99.99
2022-11-21T16:07:01.275Z,99.99
2022-11-21T16:08:01.198Z,99.99
2022-11-21T16:09:01.262Z,99.99
2022-11-21T16:10:01.173Z,99.99
2022-11-21T16:11:01.174Z,99.99
2022-11-21T16:12:01.151Z,99.99
2022-11-21T16:13:01.152Z,99.99
2022-11-21T16:14:01.126Z,99.99
2022-11-21T16:15:01.118Z,99.99
2022-11-21T16:16:01.101Z,99.99
2022-11-21T16:17:01.084Z,99.99
2022-11-21T16:18:01.068Z,99.99
2022-11-21T16:19:01.321Z,99.99
2022-11-21T16:20:01.041Z,99.99
2022-11-21T16:21:01.040Z,99.99
2022-11-21T16:22:01.028Z,99.99
2022-11-21T16:23:01.010Z,99.99
2022-11-21T16:24:01.011Z,99.99
2022-11-21T16:25:01.002Z,99.99
2022-11-21T16:26:00.999Z,99.99
2022-11-21T16:27:00.959Z,99.99
2022-11-21T16:28:06.856Z,99.99
2022-11-21T16:29:01.939Z,99.99
2022-11-21T16:30:00.911Z,99.99
2022-11-21T16:31:00.918Z,99.99
2022-11-21T16:32:00.909Z,99.99
2022-11-21T16:33:00.885Z,99.99
2022-11-21T16:34:00.992Z,99.99
2022-11-21T16:35:00.848Z,99.99
2022-11-21T16:36:00.852Z,99.99
2022-11-21T16:37:06.972Z,99.99
2022-11-21T16:38:01.807Z,99.99
2022-11-21T16:39:07.803Z,99.99
2022-11-21T16:40:01.956Z,99.99
2022-11-21T16:41:00.787Z,99.99
2022-11-21T16:42:00.760Z,99.99
2022-11-21T16:43:00.757Z,99.99
2022-11-21T16:44:00.743Z,99.99
2022-11-21T16:45:00.726Z,99.99
2022-11-21T16:46:00.732Z,99.99
2022-11-21T16:47:06.624Z,99.99
2022-11-21T16:48:01.741Z,99.99
2022-11-21T16:49:00.688Z,99.99
2022-11-21T16:50:00.665Z,99.99
2022-11-21T16:51:00.657Z,99.99
2022-11-21T16:52:00.635Z,99.99
2022-11-21T16:53:00.632Z,99.99
2022-11-21T16:54:05.839Z,99.99
2022-11-21T16:55:01.594Z,99.99
2022-11-21T16:56:00.603Z,99.99
2022-11-21T16:57:00.572Z,99.99
2022-11-21T16:58:00.573Z,99.99
2022-11-21T16:59:00.553Z,99.99
2022-11-21T17:00:00.748Z,99.99
2022-11-21T17:01:00.557Z,99.99
2022-11-21T17:02:00.513Z,99.99
2022-11-21T17:03:00.512Z,99.99
2022-11-21T17:04:00.484Z,99.99
2022-11-21T17:05:00.472Z,99.99
2022-11-21T17:06:00.451Z,99.99
2022-11-21T17:07:00.568Z,99.99
2022-11-21T17:08:00.429Z,99.99
2022-11-21T17:09:00.411Z,99.99
2022-11-21T17:10:00.399Z,99.99
2022-11-21T17:11:01.629Z,99.99
2022-11-21T17:12:00.390Z,99.99
2022-11-21T17:13:00.374Z,99.99
2022-11-21T17:14:00.350Z,99.99
2022-11-21T17:15:00.345Z,99.99
2022-11-21T17:16:00.320Z,99.99
2022-11-21T17:17:00.320Z,99.99
2022-11-21T17:18:00.300Z,99.99
2022-11-21T17:19:00.291Z,99.99
2022-11-21T17:20:00.272Z,99.99
2022-11-21T17:21:00.270Z,99.99
2022-11-21T17:22:00.262Z,99.99
2022-11-21T17:23:00.248Z,99.99
2022-11-21T17:24:00.234Z,99.99
2022-11-21T17:25:00.220Z,99.99
2022-11-21T17:26:00.197Z,99.99
2022-11-21T17:27:00.197Z,99.99
2022-11-21T17:28:00.168Z,99.99
2022-11-21T17:29:00.180Z,99.99
2022-11-21T17:30:00.162Z,99.99
2022-11-21T17:31:00.191Z,99.99
2022-11-21T17:32:00.145Z,99.99
2022-11-21T17:33:00.108Z,99.99
2022-11-21T17:34:00.102Z,99.99
2022-11-21T17:35:00.103Z,99.99
2022-11-21T17:36:00.075Z,99.99
2022-11-21T17:37:00.084Z,99.99
2022-11-21T17:38:00.044Z,99.99
2022-11-21T17:39:00.034Z,99.99
2022-11-21T17:40:00.017Z,99.99
2022-11-21T17:41:00.020Z,99.99
2022-11-21T17:42:00.004Z,99.99
2022-11-21T17:42:59.991Z,99.99
2022-11-21T17:43:59.965Z,99.99
2022-11-21T17:44:59.962Z,99.99
2022-11-21T17:46:01.816Z,99.99
2022-11-21T17:47:00.953Z,99.99
2022-11-21T17:47:59.922Z,99.99
2022-11-21T17:48:59.905Z,99.99
2022-11-21T17:50:05.347Z,99.99
2022-11-21T17:51:00.898Z,99.99
2022-11-21T17:51:59.871Z,99.99
2022-11-21T17:52:59.904Z,99.99
2022-11-21T17:53:59.882Z,99.99
2022-11-21T17:54:59.835Z,99.99
2022-11-21T17:55:59.812Z,99.99
2022-11-21T17:56:59.810Z,99.99
2022-11-21T17:57:59.789Z,99.99
2022-11-21T17:58:59.784Z,99.99
2022-11-21T17:59:59.761Z,99.99
2022-11-21T18:00:59.918Z,99.99
2022-11-21T18:01:59.855Z,99.99
2022-11-21T18:02:59.735Z,99.99
2022-11-21T18:03:59.709Z,99.99
2022-11-21T18:04:59.700Z,99.99
2022-11-21T18:06:06.765Z,99.99
2022-11-21T18:06:59.702Z,99.99
2022-11-21T18:07:59.663Z,99.99
2022-11-21T18:08:59.650Z,99.99
2022-11-21T18:10:20.556Z,99.99
2022-11-21T18:11:00.628Z,99.99
2022-11-21T18:11:59.617Z,99.99
2022-11-21T18:12:59.606Z,99.99
2022-11-21T18:13:59.578Z,99.99
2022-11-21T18:14:59.577Z,99.99
2022-11-21T18:15:59.579Z,99.99
2022-11-21T18:16:59.556Z,99.99
2022-11-21T18:17:59.527Z,99.99
2022-11-21T18:18:59.534Z,99.99
2022-11-21T18:19:59.506Z,99.99
2022-11-21T18:20:59.504Z,99.99
2022-11-21T18:21:59.495Z,99.99
2022-11-21T18:22:59.474Z,99.99
2022-11-21T18:23:59.455Z,99.99
2022-11-21T18:24:59.445Z,99.99
2022-11-21T18:25:59.437Z,99.99
2022-11-21T18:26:59.434Z,99.99
2022-11-21T18:27:59.412Z,99.99